Time;durP1;ratioP1;P1;durP2;ratioP2;P2;SDS_P1;SDS_P2;PMS_P1;PMS_P2;Temp;Humidity;BMP_temperature;BMP_pressure;BME280_temperature;BME280_humidity;BME280_pressure;Samples;Min_cycle;Max_cycle;Signal;HPM_P1;HPM_P2
2021/08/08 00:02:28;;;;;;;2.70;1.17;;;17.70;99.90;;;;;;5030473;28;21013;-75
2021/08/08 00:05:13;;;;;;;3.30;1.50;;;17.60;99.90;;;;;;5028562;28;20459;-76
2021/08/08 00:07:59;;;;;;;2.60;1.50;;;17.50;99.90;;;;;;5030474;28;20403;-76
2021/08/08 00:10:44;;;;;;;2.40;1.60;;;17.50;99.90;;;;;;5034816;28;20431;-74
2021/08/08 00:13:30;;;;;;;2.53;1.40;;;17.40;99.90;;;;;;5030463;28;21008;-76
2021/08/08 00:16:17;;;;;;;2.27;1.33;;;17.40;99.90;;;;;;5028901;28;20414;-75
2021/08/08 00:19:03;;;;;;;4.03;1.73;;;17.40;99.90;;;;;;5030415;28;20462;-76
2021/08/08 00:21:49;;;;;;;4.33;1.63;;;17.40;99.90;;;;;;5030762;28;20421;-76
2021/08/08 00:24:35;;;;;;;2.27;1.20;;;17.50;99.90;;;;;;5030062;28;20480;-75
2021/08/08 00:27:20;;;;;;;6.70;1.30;;;17.40;99.90;;;;;;5030765;28;20432;-76
2021/08/08 00:30:08;;;;;;;1.90;1.13;;;17.30;99.90;;;;;;5010802;28;20800;-76
2021/08/08 00:32:55;;;;;;;1.93;1.17;;;17.20;99.90;;;;;;5010496;28;20607;-75
2021/08/08 00:35:42;;;;;;;3.50;1.33;;;17.20;99.90;;;;;;5011653;28;20483;-75
2021/08/08 00:38:28;;;;;;;3.20;1.20;;;17.20;99.90;;;;;;5014107;28;20421;-76
2021/08/08 00:41:14;;;;;;;3.97;1.50;;;17.20;99.90;;;;;;5037332;28;21289;-74
2021/08/08 00:43:59;;;;;;;4.67;1.03;;;17.00;99.90;;;;;;5013897;28;20561;-75
2021/08/08 00:46:45;;;;;;;2.00;1.10;;;17.00;99.90;;;;;;5013784;28;20404;-75
2021/08/08 00:49:33;;;;;;;3.33;1.70;;;16.90;99.90;;;;;;5014036;28;20497;-76
2021/08/08 00:52:19;;;;;;;2.87;1.20;;;17.00;99.90;;;;;;5013999;28;20446;-76
2021/08/08 00:55:06;;;;;;;1.60;0.90;;;16.90;99.90;;;;;;5013613;28;20932;-76
2021/08/08 00:57:51;;;;;;;2.67;1.30;;;16.90;99.90;;;;;;5013983;28;20468;-76
2021/08/08 01:00:38;;;;;;;2.20;1.30;;;16.90;99.90;;;;;;5013743;28;20430;-76
2021/08/08 01:03:26;;;;;;;1.97;1.10;;;16.90;99.90;;;;;;5013817;28;20441;-75
2021/08/08 01:06:18;;;;;;;2.63;0.90;;;16.90;99.90;;;;;;5013292;28;20384;-76
2021/08/08 01:09:06;;;;;;;2.00;1.30;;;16.90;99.90;;;;;;5016321;28;20543;-76
2021/08/08 01:11:53;;;;;;;5.93;2.77;;;16.90;99.90;;;;;;5025546;28;20619;-76
2021/08/08 01:14:40;;;;;;;9.40;1.60;;;16.80;99.90;;;;;;5032861;28;20472;-76
2021/08/08 01:17:27;;;;;;;4.17;1.33;;;16.80;99.90;;;;;;5042894;28;20453;-76
2021/08/08 01:20:15;;;;;;;5.10;1.37;;;16.70;99.90;;;;;;5052372;28;20464;-76
2021/08/08 01:23:04;;;;;;;2.43;1.30;;;16.80;99.90;;;;;;5053241;28;21054;-76
2021/08/08 01:25:51;;;;;;;3.00;1.17;;;16.70;99.90;;;;;;5052655;28;20567;-76
2021/08/08 01:28:38;;;;;;;3.53;1.37;;;16.70;99.90;;;;;;5033669;28;20428;-76
2021/08/08 01:31:25;;;;;;;5.90;1.20;;;16.60;99.90;;;;;;5033094;28;20786;-76
2021/08/08 01:34:10;;;;;;;2.50;1.10;;;16.60;99.90;;;;;;5033227;28;20450;-76
2021/08/08 01:36:56;;;;;;;6.77;1.20;;;16.60;99.90;;;;;;5013113;28;20428;-76
2021/08/08 01:39:44;;;;;;;4.90;1.37;;;16.60;99.90;;;;;;5024085;28;20997;-76
2021/08/08 01:42:32;;;;;;;2.97;1.20;;;16.60;99.90;;;;;;5032790;28;20451;-76
2021/08/08 01:45:19;;;;;;;2.13;0.80;;;16.50;99.90;;;;;;5032732;28;20399;-76
2021/08/08 01:48:08;;;;;;;2.00;0.83;;;16.50;99.90;;;;;;5032699;28;20802;-76
2021/08/08 01:50:54;;;;;;;1.90;1.10;;;16.40;99.90;;;;;;5032702;28;20461;-75
2021/08/08 01:53:41;;;;;;;2.43;1.30;;;16.40;99.90;;;;;;5032780;28;20489;-76
2021/08/08 01:56:27;;;;;;;4.13;1.50;;;16.40;99.90;;;;;;5032766;28;20505;-75
2021/08/08 01:59:15;;;;;;;4.70;1.10;;;16.50;99.90;;;;;;5033363;28;20573;-75
2021/08/08 02:02:09;;;;;;;7.47;2.30;;;16.50;99.90;;;;;;5032707;28;20409;-75
2021/08/08 02:04:55;;;;;;;3.60;1.10;;;16.60;99.90;;;;;;5032215;28;20433;-76
2021/08/08 02:07:40;;;;;;;6.63;1.60;;;16.50;99.90;;;;;;5032212;28;20547;-76
2021/08/08 02:10:26;;;;;;;3.00;1.00;;;16.50;99.90;;;;;;5036537;28;20430;-75
2021/08/08 02:13:12;;;;;;;2.30;1.27;;;16.50;99.90;;;;;;5032036;28;21044;-75
2021/08/08 02:15:59;;;;;;;3.33;1.13;;;16.60;99.90;;;;;;5032083;28;20927;-76
2021/08/08 02:18:45;;;;;;;4.30;1.37;;;16.50;99.90;;;;;;5031773;28;20424;-76
2021/08/08 02:21:30;;;;;;;4.40;1.17;;;16.60;99.90;;;;;;5032188;28;20420;-75
2021/08/08 02:24:16;;;;;;;2.23;1.07;;;16.50;99.90;;;;;;5031879;28;20425;-74
2021/08/08 02:27:02;;;;;;;5.23;1.13;;;16.50;99.90;;;;;;5032140;28;20433;-75
2021/08/08 02:29:48;;;;;;;3.33;1.13;;;16.40;99.90;;;;;;5031623;28;20463;-76
2021/08/08 02:32:34;;;;;;;3.00;1.00;;;16.40;99.90;;;;;;5031897;28;20517;-76
2021/08/08 02:35:20;;;;;;;2.97;1.27;;;16.40;99.90;;;;;;5031654;28;20426;-76
2021/08/08 02:38:06;;;;;;;3.13;1.10;;;16.40;99.90;;;;;;5031643;28;20445;-76
2021/08/08 02:40:52;;;;;;;6.53;1.30;;;16.40;99.90;;;;;;5036083;28;20861;-76
2021/08/08 02:43:37;;;;;;;2.03;1.13;;;16.40;99.90;;;;;;5031393;28;20486;-76
2021/08/08 02:46:24;;;;;;;3.07;1.30;;;16.30;99.90;;;;;;5031347;28;20418;-75
2021/08/08 02:49:11;;;;;;;3.47;1.07;;;16.20;99.90;;;;;;5031344;28;20399;-76
2021/08/08 02:51:56;;;;;;;2.27;1.30;;;16.20;99.90;;;;;;5031545;28;20446;-76
2021/08/08 02:54:42;;;;;;;5.30;1.50;;;16.20;99.90;;;;;;5031029;28;20533;-76
2021/08/08 02:57:27;;;;;;;8.57;1.57;;;16.10;99.90;;;;;;5031701;28;20921;-76
2021/08/08 03:00:14;;;;;;;2.33;1.30;;;16.10;99.90;;;;;;5031137;28;20526;-74
2021/08/08 03:02:59;;;;;;;4.70;1.47;;;16.20;99.90;;;;;;5031884;28;20538;-76
2021/08/08 03:05:46;;;;;;;4.23;1.30;;;16.20;99.90;;;;;;5031004;28;20572;-75
2021/08/08 03:08:32;;;;;;;5.57;1.60;;;16.20;99.90;;;;;;5031525;28;20428;-76
2021/08/08 03:11:19;;;;;;;8.03;1.00;;;16.30;99.90;;;;;;5035407;28;20412;-76
2021/08/08 03:14:05;;;;;;;2.77;1.30;;;16.30;99.90;;;;;;5011471;28;20462;-76
2021/08/08 03:16:50;;;;;;;7.40;1.50;;;16.30;99.90;;;;;;5010033;28;20505;-75
2021/08/08 03:19:36;;;;;;;6.87;1.33;;;16.30;99.90;;;;;;5011528;28;20423;-74
2021/08/08 03:22:23;;;;;;;3.27;1.00;;;16.40;99.90;;;;;;5011596;28;20587;-76
2021/08/08 03:25:09;;;;;;;4.33;1.93;;;16.40;99.90;;;;;;5024845;28;20525;-75
2021/08/08 03:27:55;;;;;;;1.80;1.00;;;16.40;99.90;;;;;;5031215;28;20414;-76
2021/08/08 03:30:41;;;;;;;4.37;1.13;;;16.30;99.90;;;;;;5050627;23;20466;-75
2021/08/08 03:33:26;;;;;;;7.10;1.50;;;16.30;99.90;;;;;;5051116;28;20522;-75
2021/08/08 03:36:12;;;;;;;4.57;1.33;;;16.30;99.90;;;;;;5050413;28;20473;-74
2021/08/08 03:38:59;;;;;;;3.30;1.30;;;16.30;99.90;;;;;;5051940;28;20440;-75
2021/08/08 03:41:44;;;;;;;3.80;1.20;;;16.30;99.90;;;;;;5035524;28;20449;-75
2021/08/08 03:44:30;;;;;;;5.20;1.37;;;16.30;99.90;;;;;;5030794;28;20789;-74
2021/08/08 03:47:16;;;;;;;3.00;1.17;;;16.20;99.90;;;;;;5030908;28;20401;-75
2021/08/08 03:50:02;;;;;;;3.03;1.10;;;16.20;99.90;;;;;;5031217;28;20427;-75
2021/08/08 03:52:48;;;;;;;4.90;1.47;;;16.30;99.90;;;;;;5030768;28;20811;-75
2021/08/08 03:55:34;;;;;;;2.17;1.10;;;16.30;99.90;;;;;;5030738;28;20399;-75
2021/08/08 03:58:20;;;;;;;3.40;1.10;;;16.20;99.90;;;;;;5030972;28;20411;-75
2021/08/08 04:01:06;;;;;;;18.80;1.60;;;16.30;99.90;;;;;;5030911;28;20423;-75
2021/08/08 04:03:51;;;;;;;3.00;1.70;;;16.30;99.90;;;;;;5031050;28;20518;-75
2021/08/08 04:06:37;;;;;;;5.00;1.27;;;16.30;99.90;;;;;;5030710;28;20409;-72
2021/08/08 04:09:23;;;;;;;2.13;1.20;;;16.30;99.90;;;;;;5034945;28;20406;-75
2021/08/08 04:12:11;;;;;;;4.40;1.23;;;16.20;99.90;;;;;;5028267;28;20507;-75
2021/08/08 04:14:56;;;;;;;7.30;1.50;;;16.20;99.90;;;;;;5034364;28;20933;-75
2021/08/08 04:17:42;;;;;;;2.07;1.10;;;16.20;99.90;;;;;;5019013;28;20438;-75
2021/08/08 04:20:27;;;;;;;2.83;1.20;;;16.20;99.90;;;;;;5013699;28;20419;-75
2021/08/08 04:23:13;;;;;;;4.30;1.30;;;16.30;99.90;;;;;;5024373;28;20402;-75
2021/08/08 04:25:58;;;;;;;2.13;1.07;;;16.30;99.90;;;;;;5034318;28;20398;-75
2021/08/08 04:28:45;;;;;;;2.20;1.30;;;16.30;99.90;;;;;;5034331;28;20411;-75
2021/08/08 04:31:31;;;;;;;6.17;1.50;;;16.30;99.90;;;;;;5034371;28;20454;-75
2021/08/08 04:34:17;;;;;;;2.23;1.13;;;16.40;99.90;;;;;;5033844;28;20442;-75
2021/08/08 04:37:03;;;;;;;2.63;1.10;;;16.30;99.90;;;;;;5034563;28;20777;-74
2021/08/08 04:39:49;;;;;;;5.60;1.57;;;16.30;99.90;;;;;;5038320;28;20940;-75
2021/08/08 04:42:37;;;;;;;1.50;0.80;;;16.40;99.90;;;;;;5034039;28;20467;-75
2021/08/08 04:45:24;;;;;;;9.13;1.63;;;16.40;99.90;;;;;;5033639;28;20406;-75
2021/08/08 04:48:10;;;;;;;5.07;1.33;;;16.30;99.90;;;;;;5034203;28;20899;-75
2021/08/08 04:50:55;;;;;;;3.63;1.13;;;16.30;99.90;;;;;;5034015;28;20535;-75
2021/08/08 04:53:41;;;;;;;3.77;1.53;;;16.20;99.90;;;;;;5033727;28;20604;-75
2021/08/08 04:56:27;;;;;;;6.80;1.07;;;16.20;99.90;;;;;;5033634;28;20399;-74
2021/08/08 04:59:13;;;;;;;6.60;1.43;;;16.20;99.90;;;;;;5033697;28;20428;-75
2021/08/08 05:01:59;;;;;;;7.50;1.50;;;16.20;99.90;;;;;;5033732;28;20445;-75
2021/08/08 05:04:45;;;;;;;3.97;1.13;;;16.30;99.90;;;;;;5033092;28;20426;-75
2021/08/08 05:07:31;;;;;;;2.73;1.30;;;16.40;99.90;;;;;;5033707;28;20786;-75
2021/08/08 05:10:18;;;;;;;2.20;1.03;;;16.50;99.90;;;;;;5037783;28;20472;-74
2021/08/08 05:13:04;;;;;;;3.40;1.30;;;16.50;99.90;;;;;;5026983;28;20439;-75
2021/08/08 05:15:52;;;;;;;3.40;1.67;;;16.60;99.90;;;;;;5033007;28;20914;-75
2021/08/08 05:18:39;;;;;;;4.20;1.40;;;16.70;99.90;;;;;;5033672;28;20922;-75
2021/08/08 05:21:25;;;;;;;2.63;1.23;;;16.70;99.90;;;;;;5033063;28;20456;-75
2021/08/08 05:24:10;;;;;;;5.83;1.60;;;16.80;99.90;;;;;;5033290;28;20474;-75
2021/08/08 05:26:56;;;;;;;2.90;1.43;;;16.80;99.90;;;;;;5033233;28;20425;-75
2021/08/08 05:29:42;;;;;;;4.17;1.50;;;16.80;99.90;;;;;;5033507;28;20861;-75
2021/08/08 05:32:28;;;;;;;3.63;1.47;;;16.90;99.90;;;;;;5033018;28;20451;-74
2021/08/08 05:35:15;;;;;;;2.43;1.60;;;16.80;99.90;;;;;;5033147;28;20883;-74
2021/08/08 05:38:01;;;;;;;5.03;1.23;;;16.80;99.90;;;;;;5033359;28;21039;-75
2021/08/08 05:40:46;;;;;;;7.00;2.10;;;16.80;99.90;;;;;;5037853;28;20455;-75
2021/08/08 05:43:32;;;;;;;4.30;1.70;;;16.70;99.90;;;;;;5033114;28;20424;-75
2021/08/08 05:46:18;;;;;;;2.60;1.30;;;16.60;99.90;;;;;;5032724;28;20942;-75
2021/08/08 05:49:05;;;;;;;4.03;1.70;;;16.70;99.90;;;;;;5033198;28;20764;-75
2021/08/08 05:51:52;;;;;;;5.40;1.60;;;16.80;99.90;;;;;;5032736;28;20437;-75
2021/08/08 05:54:38;;;;;;;6.83;1.67;;;16.80;99.90;;;;;;5032544;28;20969;-74
2021/08/08 05:57:24;;;;;;;2.47;1.60;;;16.90;99.90;;;;;;5032735;28;20477;-75
2021/08/08 06:00:10;;;;;;;5.80;3.17;;;16.90;99.90;;;;;;5032768;28;20494;-75
2021/08/08 06:02:56;;;;;;;2.87;1.40;;;16.90;99.90;;;;;;5032572;28;21016;-75
2021/08/08 06:05:43;;;;;;;3.83;1.50;;;17.00;99.90;;;;;;5032602;28;20443;-74
2021/08/08 06:08:30;;;;;;;4.40;1.67;;;16.90;99.90;;;;;;5032603;28;20570;-73
2021/08/08 06:11:16;;;;;;;10.50;1.93;;;17.00;99.90;;;;;;5032523;28;20450;-75
2021/08/08 06:14:02;;;;;;;3.83;2.00;;;17.10;99.90;;;;;;5012592;28;20526;-75
2021/08/08 06:16:48;;;;;;;7.50;1.57;;;17.30;99.90;;;;;;5012528;28;20451;-75
2021/08/08 06:19:34;;;;;;;3.90;1.90;;;17.40;99.90;;;;;;5015510;28;20432;-75
2021/08/08 06:22:19;;;;;;;2.23;1.30;;;17.30;99.90;;;;;;5032389;28;20410;-75
2021/08/08 06:25:08;;;;;;;13.00;2.03;;;17.30;99.90;;;;;;5032356;28;20429;-74
2021/08/08 06:27:53;;;;;;;4.07;1.80;;;17.30;99.90;;;;;;5032229;28;20419;-74
2021/08/08 06:30:39;;;;;;;5.13;1.90;;;17.40;99.90;;;;;;5032330;28;20908;-74
2021/08/08 06:33:25;;;;;;;4.90;1.93;;;17.40;99.90;;;;;;5031483;28;20478;-75
2021/08/08 06:36:11;;;;;;;7.90;3.07;;;17.30;99.90;;;;;;5031960;28;20894;-75
2021/08/08 06:38:57;;;;;;;9.90;1.87;;;17.30;99.90;;;;;;5032387;28;20432;-75
2021/08/08 06:41:45;;;;;;;7.70;2.50;;;17.30;99.90;;;;;;5033009;28;20553;-75
2021/08/08 06:44:30;;;;;;;5.97;1.93;;;17.40;99.90;;;;;;5031754;28;20556;-74
2021/08/08 06:47:16;;;;;;;8.20;2.07;;;17.40;99.90;;;;;;5032139;28;20545;-74
2021/08/08 06:50:02;;;;;;;4.97;1.57;;;17.30;99.90;;;;;;5032074;28;20405;-74
2021/08/08 06:52:47;;;;;;;7.27;1.87;;;17.20;99.90;;;;;;5032075;28;20890;-75
2021/08/08 06:55:33;;;;;;;10.30;2.30;;;17.20;99.90;;;;;;5031593;28;20399;-75
2021/08/08 06:58:20;;;;;;;9.87;1.60;;;17.20;99.90;;;;;;5031822;28;20425;-74
2021/08/08 07:01:06;;;;;;;5.43;1.80;;;17.30;99.90;;;;;;5031383;28;20988;-75
2021/08/08 07:03:52;;;;;;;4.17;1.70;;;17.30;99.90;;;;;;5031710;28;20511;-75
2021/08/08 07:06:37;;;;;;;11.73;2.30;;;17.40;99.90;;;;;;5031002;28;21076;-75
2021/08/08 07:09:23;;;;;;;9.10;1.90;;;17.30;99.90;;;;;;5035962;28;20427;-75
2021/08/08 07:12:09;;;;;;;6.20;2.00;;;17.30;99.90;;;;;;5025617;28;20494;-74
2021/08/08 07:14:55;;;;;;;4.40;1.80;;;17.30;99.90;;;;;;5031118;28;20475;-75
2021/08/08 07:17:41;;;;;;;5.53;1.87;;;17.30;99.90;;;;;;5032084;28;20902;-75
2021/08/08 07:20:27;;;;;;;9.60;2.10;;;17.30;99.90;;;;;;5010863;28;20515;-74
2021/08/08 07:23:13;;;;;;;5.73;2.13;;;17.30;99.90;;;;;;5012251;28;20934;-74
2021/08/08 07:25:58;;;;;;;7.33;2.60;;;17.40;99.90;;;;;;5011393;28;20775;-75
2021/08/08 07:28:44;;;;;;;7.53;1.90;;;17.50;99.90;;;;;;5011794;28;20401;-75
2021/08/08 07:31:31;;;;;;;8.13;2.40;;;17.60;99.90;;;;;;5011240;28;20432;-75
2021/08/08 07:34:17;;;;;;;6.20;1.90;;;17.80;99.90;;;;;;5011656;28;20463;-75
2021/08/08 07:37:03;;;;;;;6.00;2.00;;;18.10;99.90;;;;;;5011361;28;20446;-75
2021/08/08 07:39:48;;;;;;;5.33;2.03;;;18.20;99.90;;;;;;5023281;28;20483;-75
2021/08/08 07:42:34;;;;;;;5.30;2.23;;;18.40;99.90;;;;;;5028082;28;20619;-75
2021/08/08 07:45:20;;;;;;;6.50;2.20;;;18.70;99.90;;;;;;5013404;28;20406;-73
2021/08/08 07:48:07;;;;;;;3.43;1.80;;;18.70;99.90;;;;;;5015401;28;20602;-72
2021/08/08 07:50:53;;;;;;;6.50;2.10;;;18.90;99.90;;;;;;5015782;28;20477;-73
2021/08/08 07:53:40;;;;;;;11.40;1.87;;;18.70;99.90;;;;;;5015135;28;20444;-73
2021/08/08 07:56:25;;;;;;;5.27;2.03;;;18.50;99.90;;;;;;5015232;28;20428;-74
2021/08/08 07:59:11;;;;;;;3.73;1.97;;;18.50;99.90;;;;;;5015551;28;20400;-74
2021/08/08 08:01:57;;;;;;;5.77;2.27;;;18.40;99.90;;;;;;5015180;28;20787;-74
2021/08/08 08:04:44;;;;;;;5.73;2.27;;;18.50;99.90;;;;;;5014837;28;20409;-73
2021/08/08 08:07:30;;;;;;;4.30;1.97;;;18.50;99.90;;;;;;5015001;28;20449;-74
2021/08/08 08:10:15;;;;;;;4.17;1.80;;;18.60;99.90;;;;;;5030584;28;20448;-74
2021/08/08 08:13:02;;;;;;;8.23;1.80;;;18.90;99.90;;;;;;5027708;28;20561;-74
2021/08/08 08:15:48;;;;;;;4.30;1.67;;;18.90;99.90;;;;;;5034399;28;20550;-74
2021/08/08 08:18:33;;;;;;;8.73;2.30;;;18.90;99.90;;;;;;5034707;28;20804;-74
2021/08/08 08:21:21;;;;;;;8.07;2.10;;;18.70;99.90;;;;;;5033320;28;20975;-74
2021/08/08 08:24:06;;;;;;;5.30;1.80;;;19.00;99.90;;;;;;5034345;28;21031;-73
2021/08/08 08:26:52;;;;;;;7.00;1.83;;;19.00;99.90;;;;;;5034565;28;20427;-74
2021/08/08 08:29:38;;;;;;;6.37;2.07;;;19.10;99.90;;;;;;5034393;28;20400;-74
2021/08/08 08:32:24;;;;;;;3.67;1.70;;;19.20;99.90;;;;;;5034444;28;20424;-74
2021/08/08 08:35:11;;;;;;;6.20;1.67;;;19.30;99.90;;;;;;5033811;28;20478;-73
2021/08/08 08:37:58;;;;;;;6.80;2.03;;;19.20;99.90;;;;;;5034450;28;20408;-74
2021/08/08 08:40:44;;;;;;;5.23;2.60;;;19.00;99.90;;;;;;5038457;28;20431;-74
2021/08/08 08:43:31;;;;;;;7.70;3.60;;;19.00;99.90;;;;;;5034459;28;20407;-74
2021/08/08 08:46:16;;;;;;;12.37;2.27;;;18.80;99.90;;;;;;5034030;28;20514;-74
2021/08/08 08:49:02;;;;;;;4.37;2.07;;;18.80;99.90;;;;;;5034131;28;20428;-74
2021/08/08 08:51:54;;;;;;;8.67;2.27;;;18.80;99.90;;;;;;5034197;28;20426;-74
2021/08/08 08:54:41;;;;;;;5.17;2.00;;;18.80;99.90;;;;;;5033717;28;20432;-74
2021/08/08 08:57:27;;;;;;;5.10;2.10;;;18.90;99.90;;;;;;5033510;28;20487;-74
2021/08/08 09:00:14;;;;;;;4.63;2.17;;;18.90;99.90;;;;;;5033851;28;20419;-74
2021/08/08 09:03:01;;;;;;;4.90;1.80;;;18.90;99.90;;;;;;5033846;28;20429;-74
2021/08/08 09:05:47;;;;;;;3.77;1.77;;;18.90;99.90;;;;;;5033324;28;20911;-74
2021/08/08 09:08:33;;;;;;;8.00;2.20;;;19.00;99.90;;;;;;5033748;28;20539;-74
2021/08/08 09:11:20;;;;;;;3.93;1.57;;;19.00;99.90;;;;;;5037745;28;20480;-74
2021/08/08 09:14:06;;;;;;;8.63;2.10;;;19.10;99.90;;;;;;5013926;28;20441;-74
2021/08/08 09:16:54;;;;;;;3.87;1.80;;;19.20;99.90;;;;;;5028657;28;20405;-74
2021/08/08 09:19:39;;;;;;;8.63;2.50;;;19.30;99.90;;;;;;5035210;28;20396;-73
2021/08/08 09:22:27;;;;;;;6.80;2.23;;;19.40;99.90;;;;;;5045833;28;20550;-74
2021/08/08 09:25:22;;;;;;;8.60;2.13;;;19.70;99.90;;;;;;5030313;28;20797;-74
2021/08/08 09:28:11;;;;;;;5.83;1.77;;;19.90;99.90;;;;;;5016120;28;20470;-74
2021/08/08 09:30:58;;;;;;;3.40;1.60;;;20.00;99.90;;;;;;5029559;28;20478;-74
2021/08/08 09:33:44;;;;;;;3.40;2.10;;;20.20;99.90;;;;;;5073402;22;20602;-76
2021/08/08 09:36:40;;;;;;;3.93;1.90;;;20.00;99.90;;;;;;5029494;28;20555;-76
2021/08/08 09:39:31;;;;;;;3.70;1.60;;;20.00;99.90;;;;;;5027526;28;20549;-76
2021/08/08 09:42:18;;;;;;;7.33;2.23;;;19.90;99.40;;;;;;5028887;28;20498;-76
2021/08/08 09:45:07;;;;;;;7.73;1.90;;;19.80;99.90;;;;;;5019031;28;20445;-76
2021/08/08 09:47:55;;;;;;;12.33;2.10;;;19.80;99.70;;;;;;5020917;28;20528;-75
2021/08/08 09:50:42;;;;;;;5.17;1.77;;;19.70;97.90;;;;;;5024006;28;20426;-76
2021/08/08 09:53:28;;;;;;;5.80;2.30;;;19.70;98.60;;;;;;5023874;28;20836;-76
2021/08/08 09:56:18;;;;;;;5.73;2.00;;;19.80;97.30;;;;;;5020314;28;20475;-76
2021/08/08 09:59:06;;;;;;;4.90;2.20;;;19.60;95.30;;;;;;5025668;28;20438;-76
2021/08/08 10:01:53;;;;;;;3.13;1.80;;;19.50;95.70;;;;;;5026480;28;20847;-76
2021/08/08 10:04:38;;;;;;;6.77;2.10;;;19.40;96.40;;;;;;5022221;28;20440;-76
2021/08/08 10:07:26;;;;;;;8.33;1.40;;;19.50;99.90;;;;;;5029009;28;20926;-76
2021/08/08 10:10:13;;;;;;;5.50;2.43;;;19.50;99.90;;;;;;5023141;28;20494;-76
2021/08/08 10:13:24;;;;;;;4.37;1.70;;;19.60;99.90;;;;;;5031155;28;20481;-76
2021/08/08 10:16:15;;;;;;;6.47;2.07;;;19.30;98.70;;;;;;5018968;28;20416;-76
2021/08/08 10:19:04;;;;;;;5.03;2.13;;;19.00;98.60;;;;;;5023167;28;20466;-76
2021/08/08 10:21:50;;;;;;;4.20;1.90;;;19.00;99.60;;;;;;5022569;28;20450;-76
2021/08/08 10:24:36;;;;;;;9.70;2.60;;;19.30;99.90;;;;;;5024371;28;20593;-76
2021/08/08 10:27:23;;;;;;;5.13;2.20;;;19.60;97.50;;;;;;5029849;28;20592;-76
2021/08/08 10:30:09;;;;;;;6.70;2.23;;;19.80;97.50;;;;;;5025875;28;20970;-76
2021/08/08 10:32:55;;;;;;;3.73;1.90;;;19.90;98.90;;;;;;5023025;28;20973;-76
2021/08/08 10:35:45;;;;;;;3.27;1.60;;;19.90;94.30;;;;;;5028433;28;20997;-76
2021/08/08 10:38:36;;;;;;;4.73;1.90;;;19.90;95.10;;;;;;5023764;28;20446;-76
2021/08/08 10:41:22;;;;;;;8.63;2.30;;;19.80;94.70;;;;;;5028117;28;20969;-76
2021/08/08 10:44:10;;;;;;;3.77;1.83;;;19.50;95.90;;;;;;5024495;28;20785;-76
2021/08/08 10:46:56;;;;;;;7.00;2.50;;;19.40;95.20;;;;;;5018932;28;20501;-75
2021/08/08 10:49:42;;;;;;;7.40;2.10;;;19.50;96.70;;;;;;5022599;28;20466;-75
2021/08/08 10:52:38;;;;;;;5.57;2.20;;;19.50;96.30;;;;;;5030524;28;20934;-75
2021/08/08 10:55:27;;;;;;;7.20;2.50;;;19.70;97.90;;;;;;5026294;28;20492;-76
2021/08/08 10:58:15;;;;;;;3.07;1.60;;;20.10;97.80;;;;;;5022974;28;20439;-76
2021/08/08 11:01:00;;;;;;;7.00;1.67;;;20.40;94.00;;;;;;5021260;28;20975;-76
2021/08/08 11:03:54;;;;;;;8.73;2.27;;;20.50;90.80;;;;;;5027795;28;20447;-76
2021/08/08 11:06:42;;;;;;;13.57;3.20;;;20.30;89.30;;;;;;5020075;28;20447;-76
2021/08/08 11:09:29;;;;;;;5.50;2.13;;;20.20;91.10;;;;;;5026945;28;20813;-76
2021/08/08 11:12:16;;;;;;;5.30;2.00;;;20.20;91.90;;;;;;5029862;28;20417;-76
2021/08/08 11:15:02;;;;;;;3.97;1.67;;;20.20;90.70;;;;;;5026623;28;20486;-76
2021/08/08 11:17:48;;;;;;;4.30;1.80;;;20.10;92.40;;;;;;5029110;28;20456;-76
2021/08/08 11:20:34;;;;;;;4.03;1.73;;;20.30;92.80;;;;;;5021655;28;20474;-76
2021/08/08 11:23:28;;;;;;;5.00;1.93;;;20.30;88.20;;;;;;5025503;28;20435;-76
2021/08/08 11:26:17;;;;;;;6.40;1.97;;;20.60;90.30;;;;;;5021642;28;20450;-76
2021/08/08 11:29:05;;;;;;;6.27;2.20;;;20.80;85.00;;;;;;5023773;28;20522;-76
2021/08/08 11:31:58;;;;;;;6.00;2.40;;;20.70;78.60;;;;;;5022781;28;20957;-76
2021/08/08 11:34:45;;;;;;;7.67;2.20;;;20.60;83.20;;;;;;5024221;28;20444;-76
2021/08/08 11:37:33;;;;;;;5.83;2.00;;;20.60;84.40;;;;;;5018556;28;20913;-76
2021/08/08 11:40:21;;;;;;;7.07;2.07;;;20.90;90.00;;;;;;5019665;28;20454;-76
2021/08/08 11:43:08;;;;;;;2.83;1.80;;;21.20;84.00;;;;;;5019176;28;20933;-76
2021/08/08 11:45:58;;;;;;;3.77;2.20;;;21.50;81.60;;;;;;5024840;28;20445;-76
2021/08/08 11:48:44;;;;;;;5.53;2.00;;;21.80;75.10;;;;;;5021327;28;20449;-76
2021/08/08 11:51:29;;;;;;;8.93;1.67;;;21.90;64.10;;;;;;5026126;28;20797;-76
2021/08/08 11:54:15;;;;;;;4.27;1.73;;;21.90;66.20;;;;;;5019770;28;20463;-76
2021/08/08 11:57:01;;;;;;;5.17;1.87;;;21.70;65.70;;;;;;5019012;28;20412;-76
2021/08/08 11:59:49;;;;;;;6.60;1.83;;;21.50;62.70;;;;;;5017829;28;20457;-76
2021/08/08 12:02:34;;;;;;;5.10;1.63;;;21.40;66.10;;;;;;5020953;28;20446;-75
2021/08/08 12:05:20;;;;;;;3.60;1.60;;;21.20;65.00;;;;;;5022692;28;20416;-76
2021/08/08 12:08:07;;;;;;;4.13;1.50;;;21.20;65.10;;;;;;5020541;28;20448;-76
2021/08/08 12:10:57;;;;;;;5.83;2.40;;;21.20;67.20;;;;;;5019393;28;20448;-74
2021/08/08 12:13:42;;;;;;;14.60;2.03;;;21.40;68.60;;;;;;5023317;28;20432;-74
2021/08/08 12:16:35;;;;;;;4.50;1.80;;;21.70;71.20;;;;;;5015400;28;20486;-74
2021/08/08 12:19:29;;;;;;;5.53;2.20;;;21.70;68.50;;;;;;5021700;28;20459;-76
2021/08/08 12:22:16;;;;;;;7.20;2.00;;;21.60;66.30;;;;;;5020025;28;20463;-76
2021/08/08 12:25:04;;;;;;;4.67;2.20;;;21.50;67.70;;;;;;5023519;28;20536;-76
2021/08/08 12:27:54;;;;;;;12.53;2.30;;;21.60;69.30;;;;;;5024702;28;20446;-75
2021/08/08 12:30:40;;;;;;;4.50;1.87;;;21.50;66.10;;;;;;5025607;28;20472;-75
2021/08/08 12:33:27;;;;;;;6.63;1.93;;;21.60;63.60;;;;;;5032937;28;20462;-75
2021/08/08 12:36:16;;;;;;;7.23;1.73;;;21.90;63.20;;;;;;5032975;28;20957;-75
2021/08/08 12:39:01;;;;;;;5.03;2.10;;;22.10;64.30;;;;;;5029238;28;20524;-75
2021/08/08 12:41:47;;;;;;;6.10;2.10;;;22.20;58.70;;;;;;5029837;28;21173;-75
2021/08/08 12:44:37;;;;;;;6.60;1.73;;;22.20;57.10;;;;;;5024025;28;20475;-75
2021/08/08 12:47:25;;;;;;;3.33;1.60;;;22.20;58.80;;;;;;5030915;28;20524;-75
2021/08/08 12:50:17;;;;;;;6.53;1.90;;;22.30;63.10;;;;;;5025989;28;20450;-76
2021/08/08 12:53:06;;;;;;;3.57;1.50;;;22.40;61.80;;;;;;5032941;28;20447;-76
2021/08/08 12:55:55;;;;;;;4.40;1.67;;;22.40;58.10;;;;;;5033425;28;20523;-76
2021/08/08 12:58:40;;;;;;;10.40;2.60;;;22.70;59.20;;;;;;5033686;28;20506;-76
2021/08/08 13:01:28;;;;;;;7.37;1.67;;;22.60;57.80;;;;;;5033637;28;20425;-76
2021/08/08 13:04:14;;;;;;;6.10;2.10;;;22.20;56.80;;;;;;5033502;28;20957;-76
2021/08/08 13:07:01;;;;;;;6.47;1.80;;;21.90;60.70;;;;;;5033613;28;20421;-76
2021/08/08 13:09:47;;;;;;;5.60;2.37;;;21.70;61.10;;;;;;5037262;28;20455;-76
2021/08/08 13:12:35;;;;;;;6.77;2.20;;;21.70;60.10;;;;;;5033205;28;20445;-76
2021/08/08 13:15:22;;;;;;;12.63;2.50;;;21.60;61.80;;;;;;5032982;28;20576;-76
2021/08/08 13:18:08;;;;;;;6.73;2.10;;;21.50;60.10;;;;;;5033402;28;20506;-76
2021/08/08 13:20:53;;;;;;;4.40;2.23;;;21.60;64.10;;;;;;5033559;28;20392;-76
2021/08/08 13:23:41;;;;;;;2.93;1.53;;;21.50;59.10;;;;;;5033226;28;20562;-76
2021/08/08 13:26:26;;;;;;;6.87;2.17;;;21.60;60.20;;;;;;5032823;28;20970;-76
2021/08/08 13:29:12;;;;;;;5.03;1.57;;;22.00;62.20;;;;;;5033338;28;20428;-76
2021/08/08 13:32:00;;;;;;;4.17;1.67;;;22.20;53.70;;;;;;5033059;28;20555;-76
2021/08/08 13:34:45;;;;;;;7.80;2.00;;;22.60;55.30;;;;;;5032538;28;20475;-76
2021/08/08 13:37:31;;;;;;;3.70;1.67;;;22.60;51.70;;;;;;5033101;28;20431;-74
2021/08/08 13:40:18;;;;;;;4.93;1.40;;;22.80;50.60;;;;;;5033002;28;20424;-73
2021/08/08 13:43:04;;;;;;;4.23;1.53;;;22.70;51.70;;;;;;5025995;28;20452;-73
2021/08/08 13:45:50;;;;;;;5.30;1.63;;;22.80;55.80;;;;;;5032591;28;20982;-73
2021/08/08 13:48:35;;;;;;;3.33;1.53;;;22.40;51.40;;;;;;5030997;28;20414;-76
2021/08/08 13:51:21;;;;;;;8.17;1.77;;;22.00;52.30;;;;;;5032987;28;20942;-76
2021/08/08 13:54:07;;;;;;;3.03;0.90;;;21.30;53.10;;;;;;5032622;28;20445;-75
2021/08/08 13:56:54;;;;;;;2.07;0.87;;;20.60;55.40;;;;;;5032314;28;20445;-76
2021/08/08 13:59:40;;;;;;;2.47;1.23;;;20.20;57.40;;;;;;5032864;28;20539;-76
2021/08/08 14:02:25;;;;;;;4.53;1.90;;;20.10;58.30;;;;;;5032557;28;20568;-76
2021/08/08 14:05:14;;;;;;;9.93;1.00;;;20.00;59.80;;;;;;5032192;28;20418;-76
2021/08/08 14:08:00;;;;;;;3.50;1.20;;;19.80;61.00;;;;;;5032383;28;20434;-76
2021/08/08 14:10:45;;;;;;;2.87;1.10;;;19.50;62.00;;;;;;5036778;28;21035;-76
2021/08/08 14:13:33;;;;;;;2.50;1.13;;;19.40;64.50;;;;;;5032023;28;20503;-76
2021/08/08 14:16:19;;;;;;;3.30;1.20;;;19.10;66.60;;;;;;5031941;28;20468;-76
2021/08/08 14:19:04;;;;;;;1.80;1.10;;;18.90;70.40;;;;;;5032321;28;20449;-76
2021/08/08 14:21:50;;;;;;;3.47;1.20;;;18.70;75.00;;;;;;5032170;28;20562;-75
2021/08/08 14:24:36;;;;;;;2.77;1.40;;;18.30;91.20;;;;;;5031982;28;20569;-76
2021/08/08 14:27:21;;;;;;;4.07;1.10;;;17.90;94.70;;;;;;5032104;28;20403;-76